Terminal Aerodrome Forecast
Issued by NWS

Current Version | Previous Version | Text Only | Print | Product List | Glossary On
Versions: 1 2 3 4 5 6 7 8 9 10 11 12 13 14 15 16 17 18 19 20 21 22 23 24 25 26
000 FTUS41 KBOX 222336 TAFBED TAF KBED 222336Z 2300/2324 21008KT P6SM SCT250 FM231000 23007KT 5SM BR SCT250 FM231200 22008KT P6SM SCT250 FM231500 22012KT P6SM SCT250 FM231800 22014G21KT P6SM SCT040 BKN250 FM232000 22014KT P6SM BKN040=

USA.gov is the U.S. government's official web portal to all federal, state and local government web resources and services.